Terminal Aerodrome Forecast
Issued by NWS

Home | Current Version | Previous Version | Text Only | Print | Product List | Glossary On
Versions: 1 2 3 4 5 6 7 8 9 10 11 12 13 14 15 16 17 18 19 20 21 22 23 24 25 26 27 28 29 30 31 32 33 34 35 36 37
000
FTUS45 KGJT 212325
TAFTEX
TAF
KTEX 212325Z 2200/2224 26009KT P6SM VCSH OVC012
      TEMPO 2200/2203 3SM -SN BR OVC010
     FM220300 29010G20KT 2SM -SN BR BKN012
     FM220900 27008KT 1/2SM -SN FZFG OVC008
     FM221800 28010KT 3SM -SN BR SCT009 OVC015=

USA.gov is the U.S. government's official web portal to all federal, state and local government web resources and services.